sensor_id;sensor_type;location;lat;lon;timestamp;pressure;altitude;pressure_sealevel;temperature;humidity
59110;BME280;44895;47.438;18.978;2023-12-07T00:02:01;99854.03;;;2.12;100.00
59110;BME280;44895;47.438;18.978;2023-12-07T00:05:04;99865.00;;;2.10;100.00
59110;BME280;44895;47.438;18.978;2023-12-07T00:08:11;99864.94;;;2.05;100.00
59110;BME280;44895;47.438;18.978;2023-12-07T00:11:15;99874.56;;;2.06;100.00
59110;BME280;44895;47.438;18.978;2023-12-07T00:14:19;99864.41;;;2.25;100.00
59110;BME280;44895;47.438;18.978;2023-12-07T00:17:23;99868.25;;;2.30;100.00
59110;BME280;44895;47.438;18.978;2023-12-07T00:20:27;99858.50;;;2.06;100.00
59110;BME280;44895;47.438;18.978;2023-12-07T00:23:30;99865.16;;;2.04;100.00
59110;BME280;44895;47.438;18.978;2023-12-07T00:26:34;99842.13;;;2.03;100.00
59110;BME280;44895;47.438;18.978;2023-12-07T00:29:38;99866.09;;;1.98;100.00
59110;BME280;44895;47.438;18.978;2023-12-07T00:32:42;99862.03;;;1.95;100.00
59110;BME280;44895;47.438;18.978;2023-12-07T00:35:47;99871.16;;;2.11;100.00
59110;BME280;44895;47.438;18.978;2023-12-07T00:38:51;99866.06;;;2.26;100.00
59110;BME280;44895;47.438;18.978;2023-12-07T00:41:54;99865.56;;;2.30;100.00
59110;BME280;44895;47.438;18.978;2023-12-07T00:44:58;99871.25;;;2.16;100.00
59110;BME280;44895;47.438;18.978;2023-12-07T00:48:02;99868.41;;;2.23;100.00
59110;BME280;44895;47.438;18.978;2023-12-07T00:51:05;99869.16;;;2.18;100.00
59110;BME280;44895;47.438;18.978;2023-12-07T00:54:10;99863.53;;;2.20;100.00
59110;BME280;44895;47.438;18.978;2023-12-07T00:57:13;99866.31;;;2.25;100.00
59110;BME280;44895;47.438;18.978;2023-12-07T01:00:18;99867.44;;;2.12;100.00
59110;BME280;44895;47.438;18.978;2023-12-07T01:03:22;99864.03;;;2.34;100.00
59110;BME280;44895;47.438;18.978;2023-12-07T01:06:25;99867.19;;;2.14;100.00
59110;BME280;44895;47.438;18.978;2023-12-07T01:09:29;99862.78;;;2.07;100.00
59110;BME280;44895;47.438;18.978;2023-12-07T01:12:33;99860.94;;;2.08;100.00
59110;BME280;44895;47.438;18.978;2023-12-07T01:15:39;99844.03;;;2.07;100.00
59110;BME280;44895;47.438;18.978;2023-12-07T01:18:43;99851.53;;;2.22;100.00
59110;BME280;44895;47.438;18.978;2023-12-07T01:21:47;99852.50;;;2.16;100.00
59110;BME280;44895;47.438;18.978;2023-12-07T01:24:51;99856.47;;;2.14;100.00
59110;BME280;44895;47.438;18.978;2023-12-07T01:27:55;99850.38;;;2.01;100.00
59110;BME280;44895;47.438;18.978;2023-12-07T01:30:59;99853.47;;;2.27;100.00
59110;BME280;44895;47.438;18.978;2023-12-07T01:34:02;99852.56;;;2.04;100.00
59110;BME280;44895;47.438;18.978;2023-12-07T01:37:06;99840.63;;;1.95;100.00
59110;BME280;44895;47.438;18.978;2023-12-07T01:40:11;99849.97;;;2.09;100.00
59110;BME280;44895;47.438;18.978;2023-12-07T01:43:14;99840.31;;;2.25;100.00
59110;BME280;44895;47.438;18.978;2023-12-07T01:46:18;99838.53;;;2.31;100.00
59110;BME280;44895;47.438;18.978;2023-12-07T01:49:22;99843.72;;;2.21;100.00
59110;BME280;44895;47.438;18.978;2023-12-07T01:52:27;99842.44;;;2.23;100.00
59110;BME280;44895;47.438;18.978;2023-12-07T01:55:31;99843.88;;;1.97;100.00
59110;BME280;44895;47.438;18.978;2023-12-07T01:58:36;99841.38;;;2.07;100.00
59110;BME280;44895;47.438;18.978;2023-12-07T02:01:40;99845.50;;;2.15;100.00
59110;BME280;44895;47.438;18.978;2023-12-07T02:04:44;99840.97;;;2.16;100.00
59110;BME280;44895;47.438;18.978;2023-12-07T02:07:48;99838.69;;;2.07;100.00
59110;BME280;44895;47.438;18.978;2023-12-07T02:10:52;99842.09;;;2.20;100.00
59110;BME280;44895;47.438;18.978;2023-12-07T02:13:58;99850.38;;;2.18;100.00
59110;BME280;44895;47.438;18.978;2023-12-07T02:17:13;99836.25;;;2.06;100.00
59110;BME280;44895;47.438;18.978;2023-12-07T02:20:21;99851.84;;;2.09;100.00
59110;BME280;44895;47.438;18.978;2023-12-07T02:23:32;99839.81;;;2.11;100.00
59110;BME280;44895;47.438;18.978;2023-12-07T02:26:36;99845.66;;;2.08;100.00
59110;BME280;44895;47.438;18.978;2023-12-07T02:29:40;99841.88;;;2.04;100.00
59110;BME280;44895;47.438;18.978;2023-12-07T02:32:45;99837.22;;;2.00;100.00
59110;BME280;44895;47.438;18.978;2023-12-07T02:35:49;99846.22;;;1.93;100.00
59110;BME280;44895;47.438;18.978;2023-12-07T02:38:56;99835.59;;;1.99;100.00
59110;BME280;44895;47.438;18.978;2023-12-07T02:42:01;99843.16;;;2.02;100.00
59110;BME280;44895;47.438;18.978;2023-12-07T02:45:05;99845.19;;;1.94;100.00
59110;BME280;44895;47.438;18.978;2023-12-07T02:48:09;99843.56;;;2.10;100.00
59110;BME280;44895;47.438;18.978;2023-12-07T02:51:13;99841.13;;;2.26;100.00
59110;BME280;44895;47.438;18.978;2023-12-07T02:54:16;99846.97;;;2.23;100.00
59110;BME280;44895;47.438;18.978;2023-12-07T02:57:20;99851.69;;;2.16;100.00
59110;BME280;44895;47.438;18.978;2023-12-07T03:00:24;99847.63;;;2.13;100.00
59110;BME280;44895;47.438;18.978;2023-12-07T03:03:28;99846.34;;;2.16;100.00
59110;BME280;44895;47.438;18.978;2023-12-07T03:06:31;99851.28;;;2.24;100.00
59110;BME280;44895;47.438;18.978;2023-12-07T03:09:35;99851.84;;;2.26;100.00
59110;BME280;44895;47.438;18.978;2023-12-07T03:12:39;99862.47;;;2.04;100.00
59110;BME280;44895;47.438;18.978;2023-12-07T03:15:43;99861.38;;;2.17;100.00
59110;BME280;44895;47.438;18.978;2023-12-07T03:18:46;99866.78;;;2.05;100.00
59110;BME280;44895;47.438;18.978;2023-12-07T03:21:50;99855.88;;;2.11;100.00
59110;BME280;44895;47.438;18.978;2023-12-07T03:24:54;99855.81;;;2.06;100.00
59110;BME280;44895;47.438;18.978;2023-12-07T03:27:57;99865.66;;;2.35;100.00
59110;BME280;44895;47.438;18.978;2023-12-07T03:31:01;99862.75;;;2.19;100.00
59110;BME280;44895;47.438;18.978;2023-12-07T03:34:05;99868.97;;;2.25;100.00
59110;BME280;44895;47.438;18.978;2023-12-07T03:37:09;99870.84;;;2.24;100.00
59110;BME280;44895;47.438;18.978;2023-12-07T03:40:13;99867.28;;;2.19;100.00
59110;BME280;44895;47.438;18.978;2023-12-07T03:43:19;99865.81;;;2.28;100.00
59110;BME280;44895;47.438;18.978;2023-12-07T03:46:23;99870.34;;;2.27;100.00
59110;BME280;44895;47.438;18.978;2023-12-07T03:49:26;99871.75;;;2.30;100.00
59110;BME280;44895;47.438;18.978;2023-12-07T03:52:30;99880.91;;;2.34;100.00
59110;BME280;44895;47.438;18.978;2023-12-07T03:55:34;99872.72;;;2.41;100.00
59110;BME280;44895;47.438;18.978;2023-12-07T03:58:39;99879.06;;;2.35;100.00
59110;BME280;44895;47.438;18.978;2023-12-07T04:01:43;99878.16;;;2.46;100.00
59110;BME280;44895;47.438;18.978;2023-12-07T04:04:46;99884.06;;;2.48;100.00
59110;BME280;44895;47.438;18.978;2023-12-07T04:07:50;99882.72;;;2.28;100.00
59110;BME280;44895;47.438;18.978;2023-12-07T04:10:54;99884.50;;;2.40;100.00
59110;BME280;44895;47.438;18.978;2023-12-07T04:13:58;99885.78;;;2.20;100.00
59110;BME280;44895;47.438;18.978;2023-12-07T04:17:01;99887.38;;;1.87;100.00
59110;BME280;44895;47.438;18.978;2023-12-07T04:20:05;99895.53;;;2.09;100.00
59110;BME280;44895;47.438;18.978;2023-12-07T04:23:09;99903.50;;;2.21;100.00
59110;BME280;44895;47.438;18.978;2023-12-07T04:26:12;99901.34;;;2.06;100.00
59110;BME280;44895;47.438;18.978;2023-12-07T04:29:16;99898.75;;;2.11;100.00
59110;BME280;44895;47.438;18.978;2023-12-07T04:32:20;99903.41;;;2.16;100.00
59110;BME280;44895;47.438;18.978;2023-12-07T04:35:24;99904.28;;;2.05;100.00
59110;BME280;44895;47.438;18.978;2023-12-07T04:38:27;99911.97;;;1.84;100.00
59110;BME280;44895;47.438;18.978;2023-12-07T04:41:31;99908.50;;;2.01;100.00
59110;BME280;44895;47.438;18.978;2023-12-07T04:44:35;99914.84;;;2.11;100.00
59110;BME280;44895;47.438;18.978;2023-12-07T04:47:39;99919.16;;;2.12;100.00
59110;BME280;44895;47.438;18.978;2023-12-07T04:50:43;99920.06;;;2.18;100.00
59110;BME280;44895;47.438;18.978;2023-12-07T04:53:47;99928.66;;;2.20;100.00
59110;BME280;44895;47.438;18.978;2023-12-07T04:56:50;99927.84;;;2.37;100.00
59110;BME280;44895;47.438;18.978;2023-12-07T04:59:54;99931.03;;;2.34;100.00
59110;BME280;44895;47.438;18.978;2023-12-07T05:02:59;99932.25;;;2.26;100.00
59110;BME280;44895;47.438;18.978;2023-12-07T05:06:03;99936.22;;;2.23;100.00
59110;BME280;44895;47.438;18.978;2023-12-07T05:09:06;99945.59;;;1.92;100.00
59110;BME280;44895;47.438;18.978;2023-12-07T05:12:12;99943.44;;;2.06;100.00
59110;BME280;44895;47.438;18.978;2023-12-07T05:15:16;99935.47;;;1.82;100.00
59110;BME280;44895;47.438;18.978;2023-12-07T05:18:20;99948.00;;;1.93;100.00
59110;BME280;44895;47.438;18.978;2023-12-07T05:21:24;99946.53;;;2.15;100.00
59110;BME280;44895;47.438;18.978;2023-12-07T05:24:28;99953.13;;;1.95;100.00
59110;BME280;44895;47.438;18.978;2023-12-07T05:27:33;99960.72;;;2.15;100.00
59110;BME280;44895;47.438;18.978;2023-12-07T05:30:37;99968.56;;;1.76;100.00
59110;BME280;44895;47.438;18.978;2023-12-07T05:33:41;99966.00;;;1.81;100.00
59110;BME280;44895;47.438;18.978;2023-12-07T05:36:45;99965.38;;;2.20;100.00
59110;BME280;44895;47.438;18.978;2023-12-07T05:39:49;99966.44;;;1.90;100.00
59110;BME280;44895;47.438;18.978;2023-12-07T05:42:53;99972.13;;;1.93;100.00
59110;BME280;44895;47.438;18.978;2023-12-07T05:45:57;99973.06;;;2.16;100.00
59110;BME280;44895;47.438;18.978;2023-12-07T05:49:01;99976.91;;;2.20;100.00
59110;BME280;44895;47.438;18.978;2023-12-07T05:52:05;99981.47;;;2.37;100.00
59110;BME280;44895;47.438;18.978;2023-12-07T05:55:09;99987.66;;;2.37;100.00
59110;BME280;44895;47.438;18.978;2023-12-07T05:58:13;99989.59;;;2.25;100.00
59110;BME280;44895;47.438;18.978;2023-12-07T06:01:17;99987.31;;;2.17;100.00
59110;BME280;44895;47.438;18.978;2023-12-07T06:04:21;99975.81;;;2.33;100.00
59110;BME280;44895;47.438;18.978;2023-12-07T06:07:25;99983.84;;;2.33;100.00
59110;BME280;44895;47.438;18.978;2023-12-07T06:10:28;99993.81;;;2.38;100.00
59110;BME280;44895;47.438;18.978;2023-12-07T06:13:32;99990.50;;;2.31;100.00
59110;BME280;44895;47.438;18.978;2023-12-07T06:16:37;99996.25;;;2.22;100.00
59110;BME280;44895;47.438;18.978;2023-12-07T06:19:40;99998.94;;;2.39;100.00
59110;BME280;44895;47.438;18.978;2023-12-07T06:22:46;99995.38;;;2.34;100.00
59110;BME280;44895;47.438;18.978;2023-12-07T06:25:49;100005.03;;;2.35;100.00
59110;BME280;44895;47.438;18.978;2023-12-07T06:28:54;100012.16;;;2.29;100.00
59110;BME280;44895;47.438;18.978;2023-12-07T06:31:57;100013.94;;;2.23;100.00
59110;BME280;44895;47.438;18.978;2023-12-07T06:35:01;100014.50;;;2.25;100.00
59110;BME280;44895;47.438;18.978;2023-12-07T06:38:07;100024.06;;;2.33;100.00
59110;BME280;44895;47.438;18.978;2023-12-07T06:41:11;100028.16;;;2.24;100.00
59110;BME280;44895;47.438;18.978;2023-12-07T06:44:15;100031.66;;;2.24;100.00
59110;BME280;44895;47.438;18.978;2023-12-07T06:47:18;100026.75;;;2.21;100.00
59110;BME280;44895;47.438;18.978;2023-12-07T06:50:22;100032.75;;;2.11;100.00
59110;BME280;44895;47.438;18.978;2023-12-07T06:53:26;100039.91;;;2.23;100.00
59110;BME280;44895;47.438;18.978;2023-12-07T06:56:30;100045.38;;;2.28;100.00
59110;BME280;44895;47.438;18.978;2023-12-07T06:59:33;100044.75;;;2.38;100.00
59110;BME280;44895;47.438;18.978;2023-12-07T07:02:38;100051.41;;;2.35;100.00
59110;BME280;44895;47.438;18.978;2023-12-07T07:05:42;100044.00;;;2.25;100.00
59110;BME280;44895;47.438;18.978;2023-12-07T07:08:46;100052.31;;;2.12;100.00
59110;BME280;44895;47.438;18.978;2023-12-07T07:11:50;100054.72;;;2.25;100.00
59110;BME280;44895;47.438;18.978;2023-12-07T07:14:54;100052.44;;;2.17;100.00
59110;BME280;44895;47.438;18.978;2023-12-07T07:17:57;100047.22;;;1.99;100.00
59110;BME280;44895;47.438;18.978;2023-12-07T07:21:02;100054.06;;;2.18;100.00
59110;BME280;44895;47.438;18.978;2023-12-07T07:24:07;100056.00;;;2.23;100.00
59110;BME280;44895;47.438;18.978;2023-12-07T07:27:11;100056.84;;;2.23;100.00
59110;BME280;44895;47.438;18.978;2023-12-07T07:30:15;100056.97;;;2.17;100.00
59110;BME280;44895;47.438;18.978;2023-12-07T07:33:19;100061.94;;;2.25;100.00
59110;BME280;44895;47.438;18.978;2023-12-07T07:36:23;100066.59;;;2.30;100.00
59110;BME280;44895;47.438;18.978;2023-12-07T07:39:27;100063.81;;;2.24;100.00
59110;BME280;44895;47.438;18.978;2023-12-07T07:42:30;100057.91;;;2.39;100.00
59110;BME280;44895;47.438;18.978;2023-12-07T07:45:34;100074.66;;;2.18;100.00
59110;BME280;44895;47.438;18.978;2023-12-07T07:48:38;100066.28;;;2.14;100.00
59110;BME280;44895;47.438;18.978;2023-12-07T07:51:42;100072.88;;;2.35;100.00
59110;BME280;44895;47.438;18.978;2023-12-07T07:54:46;100080.84;;;2.18;100.00
59110;BME280;44895;47.438;18.978;2023-12-07T07:57:50;100082.72;;;2.47;100.00
59110;BME280;44895;47.438;18.978;2023-12-07T08:00:54;100085.47;;;2.35;100.00
59110;BME280;44895;47.438;18.978;2023-12-07T08:03:57;100086.50;;;2.34;100.00
59110;BME280;44895;47.438;18.978;2023-12-07T08:07:01;100084.63;;;2.34;100.00
59110;BME280;44895;47.438;18.978;2023-12-07T08:10:06;100082.16;;;2.44;100.00
59110;BME280;44895;47.438;18.978;2023-12-07T08:13:09;100069.63;;;2.33;100.00
59110;BME280;44895;47.438;18.978;2023-12-07T08:16:13;100087.28;;;2.46;100.00
59110;BME280;44895;47.438;18.978;2023-12-07T08:19:16;100093.28;;;2.53;100.00
59110;BME280;44895;47.438;18.978;2023-12-07T08:22:20;100090.63;;;2.53;100.00
59110;BME280;44895;47.438;18.978;2023-12-07T08:25:24;100085.16;;;2.48;100.00
59110;BME280;44895;47.438;18.978;2023-12-07T08:28:27;100090.66;;;2.70;100.00
59110;BME280;44895;47.438;18.978;2023-12-07T08:31:31;100091.59;;;2.47;100.00
59110;BME280;44895;47.438;18.978;2023-12-07T08:34:35;100096.66;;;2.32;100.00
59110;BME280;44895;47.438;18.978;2023-12-07T08:37:40;100096.53;;;2.26;100.00
59110;BME280;44895;47.438;18.978;2023-12-07T08:40:44;100097.16;;;2.57;100.00
59110;BME280;44895;47.438;18.978;2023-12-07T08:43:48;100086.69;;;2.44;100.00
59110;BME280;44895;47.438;18.978;2023-12-07T08:46:52;100095.09;;;2.48;100.00
59110;BME280;44895;47.438;18.978;2023-12-07T08:49:55;100095.75;;;2.55;100.00
59110;BME280;44895;47.438;18.978;2023-12-07T08:52:59;100094.50;;;2.45;100.00
59110;BME280;44895;47.438;18.978;2023-12-07T08:56:04;100098.72;;;2.41;100.00
59110;BME280;44895;47.438;18.978;2023-12-07T08:59:07;100096.78;;;2.25;100.00
59110;BME280;44895;47.438;18.978;2023-12-07T09:02:11;100088.38;;;2.33;100.00
59110;BME280;44895;47.438;18.978;2023-12-07T09:05:15;100098.47;;;2.43;100.00
59110;BME280;44895;47.438;18.978;2023-12-07T09:08:19;100105.19;;;2.57;100.00
59110;BME280;44895;47.438;18.978;2023-12-07T09:11:23;100096.38;;;2.74;100.00
59110;BME280;44895;47.438;18.978;2023-12-07T09:14:27;100105.06;;;2.81;100.00
59110;BME280;44895;47.438;18.978;2023-12-07T09:17:31;100104.94;;;2.59;100.00
59110;BME280;44895;47.438;18.978;2023-12-07T09:20:35;100101.81;;;2.79;100.00
59110;BME280;44895;47.438;18.978;2023-12-07T09:23:39;100109.28;;;2.77;100.00
59110;BME280;44895;47.438;18.978;2023-12-07T09:26:42;100105.75;;;2.59;100.00
59110;BME280;44895;47.438;18.978;2023-12-07T09:29:46;100112.25;;;2.35;100.00
59110;BME280;44895;47.438;18.978;2023-12-07T09:32:50;100106.81;;;2.30;100.00
59110;BME280;44895;47.438;18.978;2023-12-07T09:35:54;100086.97;;;2.59;100.00
59110;BME280;44895;47.438;18.978;2023-12-07T09:38:58;100094.31;;;2.64;100.00
59110;BME280;44895;47.438;18.978;2023-12-07T09:42:02;100093.78;;;2.79;100.00
59110;BME280;44895;47.438;18.978;2023-12-07T09:45:06;100095.19;;;2.53;100.00
59110;BME280;44895;47.438;18.978;2023-12-07T09:48:11;100099.81;;;2.57;100.00
59110;BME280;44895;47.438;18.978;2023-12-07T09:51:15;100094.03;;;2.94;100.00
59110;BME280;44895;47.438;18.978;2023-12-07T09:54:20;100104.16;;;2.47;100.00
59110;BME280;44895;47.438;18.978;2023-12-07T09:57:24;100093.09;;;2.43;100.00
59110;BME280;44895;47.438;18.978;2023-12-07T10:00:28;100095.19;;;2.70;100.00
59110;BME280;44895;47.438;18.978;2023-12-07T10:03:32;100099.00;;;2.57;100.00
59110;BME280;44895;47.438;18.978;2023-12-07T10:06:42;100109.28;;;2.48;100.00
59110;BME280;44895;47.438;18.978;2023-12-07T10:09:47;100095.84;;;2.60;100.00
59110;BME280;44895;47.438;18.978;2023-12-07T10:12:55;100090.66;;;2.70;100.00
59110;BME280;44895;47.438;18.978;2023-12-07T10:19:14;100087.19;;;2.87;100.00
59110;BME280;44895;47.438;18.978;2023-12-07T10:22:19;100095.63;;;2.78;100.00
59110;BME280;44895;47.438;18.978;2023-12-07T10:25:24;100094.53;;;2.91;100.00
59110;BME280;44895;47.438;18.978;2023-12-07T10:28:28;100098.72;;;2.87;100.00
59110;BME280;44895;47.438;18.978;2023-12-07T10:31:32;100100.56;;;2.70;100.00
59110;BME280;44895;47.438;18.978;2023-12-07T10:34:36;100104.41;;;2.74;100.00
59110;BME280;44895;47.438;18.978;2023-12-07T10:37:40;100099.00;;;2.57;100.00
59110;BME280;44895;47.438;18.978;2023-12-07T10:40:48;100100.34;;;2.71;100.00
59110;BME280;44895;47.438;18.978;2023-12-07T10:44:00;100099.13;;;2.79;100.00
59110;BME280;44895;47.438;18.978;2023-12-07T10:47:04;100099.31;;;2.72;100.00
59110;BME280;44895;47.438;18.978;2023-12-07T10:50:09;100102.16;;;2.83;100.00
59110;BME280;44895;47.438;18.978;2023-12-07T10:53:27;100095.78;;;2.72;100.00
59110;BME280;44895;47.438;18.978;2023-12-07T10:56:43;100107.28;;;2.55;100.00
59110;BME280;44895;47.438;18.978;2023-12-07T10:59:48;100105.47;;;2.90;100.00
59110;BME280;44895;47.438;18.978;2023-12-07T11:02:54;100110.13;;;3.12;100.00
59110;BME280;44895;47.438;18.978;2023-12-07T11:05:58;100110.97;;;3.12;100.00
59110;BME280;44895;47.438;18.978;2023-12-07T11:09:05;100112.44;;;3.03;100.00
59110;BME280;44895;47.438;18.978;2023-12-07T11:12:23;100111.75;;;2.96;100.00
59110;BME280;44895;47.438;18.978;2023-12-07T11:15:28;100107.59;;;2.88;100.00
59110;BME280;44895;47.438;18.978;2023-12-07T11:18:32;100119.94;;;2.72;100.00
59110;BME280;44895;47.438;18.978;2023-12-07T11:21:36;100122.19;;;2.63;100.00
59110;BME280;44895;47.438;18.978;2023-12-07T11:24:54;100116.56;;;2.65;100.00
59110;BME280;44895;47.438;18.978;2023-12-07T11:28:01;100125.78;;;2.69;100.00
59110;BME280;44895;47.438;18.978;2023-12-07T11:31:06;100123.09;;;2.69;100.00
59110;BME280;44895;47.438;18.978;2023-12-07T11:34:10;100117.91;;;2.79;100.00
59110;BME280;44895;47.438;18.978;2023-12-07T11:37:17;100108.31;;;2.66;100.00
59110;BME280;44895;47.438;18.978;2023-12-07T11:40:20;100109.47;;;2.87;100.00
59110;BME280;44895;47.438;18.978;2023-12-07T11:46:38;100111.50;;;2.97;100.00
59110;BME280;44895;47.438;18.978;2023-12-07T11:49:43;100115.75;;;3.10;100.00
59110;BME280;44895;47.438;18.978;2023-12-07T11:52:47;100109.03;;;3.24;100.00
59110;BME280;44895;47.438;18.978;2023-12-07T11:55:52;100108.44;;;3.22;100.00
59110;BME280;44895;47.438;18.978;2023-12-07T11:58:56;100108.06;;;3.31;100.00
59110;BME280;44895;47.438;18.978;2023-12-07T12:02:00;100108.28;;;3.12;100.00
59110;BME280;44895;47.438;18.978;2023-12-07T12:05:09;100123.63;;;3.00;100.00
59110;BME280;44895;47.438;18.978;2023-12-07T12:08:13;100118.19;;;3.12;100.00
59110;BME280;44895;47.438;18.978;2023-12-07T12:11:17;100122.16;;;3.09;100.00
59110;BME280;44895;47.438;18.978;2023-12-07T12:14:21;100122.84;;;3.16;100.00
59110;BME280;44895;47.438;18.978;2023-12-07T12:17:25;100119.59;;;3.31;100.00
59110;BME280;44895;47.438;18.978;2023-12-07T12:20:29;100125.94;;;3.25;100.00
59110;BME280;44895;47.438;18.978;2023-12-07T12:23:33;100126.25;;;3.29;100.00
59110;BME280;44895;47.438;18.978;2023-12-07T12:26:39;100120.97;;;3.34;100.00
59110;BME280;44895;47.438;18.978;2023-12-07T12:29:43;100130.09;;;3.16;100.00
59110;BME280;44895;47.438;18.978;2023-12-07T12:32:47;100131.78;;;3.05;100.00
59110;BME280;44895;47.438;18.978;2023-12-07T12:36:05;100134.28;;;3.12;100.00
59110;BME280;44895;47.438;18.978;2023-12-07T12:39:10;100136.00;;;3.01;100.00
59110;BME280;44895;47.438;18.978;2023-12-07T12:42:14;100140.06;;;3.20;100.00
59110;BME280;44895;47.438;18.978;2023-12-07T12:45:19;100138.94;;;3.16;100.00
59110;BME280;44895;47.438;18.978;2023-12-07T12:48:23;100145.88;;;2.83;100.00
59110;BME280;44895;47.438;18.978;2023-12-07T12:51:28;100155.50;;;2.67;100.00
59110;BME280;44895;47.438;18.978;2023-12-07T12:54:33;100146.41;;;2.97;100.00
59110;BME280;44895;47.438;18.978;2023-12-07T12:57:37;100143.19;;;2.54;100.00
59110;BME280;44895;47.438;18.978;2023-12-07T13:00:41;100152.63;;;2.57;100.00
59110;BME280;44895;47.438;18.978;2023-12-07T13:03:47;100152.00;;;2.67;100.00
59110;BME280;44895;47.438;18.978;2023-12-07T13:06:50;100153.75;;;2.73;100.00
59110;BME280;44895;47.438;18.978;2023-12-07T13:09:54;100161.28;;;2.88;100.00
59110;BME280;44895;47.438;18.978;2023-12-07T13:12:58;100162.31;;;2.58;100.00
59110;BME280;44895;47.438;18.978;2023-12-07T13:16:01;100167.81;;;2.51;100.00
59110;BME280;44895;47.438;18.978;2023-12-07T13:19:06;100166.13;;;2.62;100.00
59110;BME280;44895;47.438;18.978;2023-12-07T13:22:10;100163.69;;;2.89;100.00
59110;BME280;44895;47.438;18.978;2023-12-07T13:25:14;100158.44;;;2.94;100.00
59110;BME280;44895;47.438;18.978;2023-12-07T13:28:17;100161.41;;;2.81;100.00
59110;BME280;44895;47.438;18.978;2023-12-07T13:31:22;100173.97;;;2.64;100.00
59110;BME280;44895;47.438;18.978;2023-12-07T13:34:25;100167.09;;;2.85;100.00
59110;BME280;44895;47.438;18.978;2023-12-07T13:37:29;100170.63;;;3.02;100.00
59110;BME280;44895;47.438;18.978;2023-12-07T13:40:33;100172.81;;;2.88;100.00
59110;BME280;44895;47.438;18.978;2023-12-07T13:43:38;100184.13;;;2.90;100.00
59110;BME280;44895;47.438;18.978;2023-12-07T13:46:42;100177.50;;;2.81;100.00
59110;BME280;44895;47.438;18.978;2023-12-07T13:49:46;100173.81;;;2.99;100.00
59110;BME280;44895;47.438;18.978;2023-12-07T13:52:49;100184.06;;;2.73;100.00
59110;BME280;44895;47.438;18.978;2023-12-07T13:55:54;100181.69;;;2.48;100.00
59110;BME280;44895;47.438;18.978;2023-12-07T13:58:57;100174.41;;;2.72;100.00
59110;BME280;44895;47.438;18.978;2023-12-07T14:02:01;100200.59;;;2.82;100.00
59110;BME280;44895;47.438;18.978;2023-12-07T14:05:05;100192.63;;;2.87;100.00
59110;BME280;44895;47.438;18.978;2023-12-07T14:08:09;100192.06;;;2.85;100.00
59110;BME280;44895;47.438;18.978;2023-12-07T14:11:13;100198.84;;;2.76;100.00
59110;BME280;44895;47.438;18.978;2023-12-07T14:14:16;100204.91;;;2.83;100.00
59110;BME280;44895;47.438;18.978;2023-12-07T14:17:20;100200.94;;;2.86;100.00
59110;BME280;44895;47.438;18.978;2023-12-07T14:20:25;100211.22;;;2.77;100.00
59110;BME280;44895;47.438;18.978;2023-12-07T14:23:31;100215.09;;;2.69;100.00
59110;BME280;44895;47.438;18.978;2023-12-07T14:26:35;100212.81;;;2.61;100.00
59110;BME280;44895;47.438;18.978;2023-12-07T14:29:38;100226.41;;;2.59;100.00
59110;BME280;44895;47.438;18.978;2023-12-07T14:32:43;100229.78;;;2.67;100.00
59110;BME280;44895;47.438;18.978;2023-12-07T14:35:55;100232.22;;;2.68;100.00
59110;BME280;44895;47.438;18.978;2023-12-07T14:38:58;100234.25;;;2.61;100.00
59110;BME280;44895;47.438;18.978;2023-12-07T14:42:03;100239.81;;;2.71;100.00
59110;BME280;44895;47.438;18.978;2023-12-07T14:45:08;100242.06;;;2.63;100.00
59110;BME280;44895;47.438;18.978;2023-12-07T14:48:13;100244.34;;;2.71;100.00
59110;BME280;44895;47.438;18.978;2023-12-07T14:51:18;100254.63;;;2.74;100.00
59110;BME280;44895;47.438;18.978;2023-12-07T14:54:24;100255.22;;;2.64;100.00
59110;BME280;44895;47.438;18.978;2023-12-07T14:57:28;100258.41;;;2.61;100.00
59110;BME280;44895;47.438;18.978;2023-12-07T15:00:31;100257.91;;;2.64;100.00
59110;BME280;44895;47.438;18.978;2023-12-07T15:03:35;100264.47;;;2.44;100.00
59110;BME280;44895;47.438;18.978;2023-12-07T15:06:39;100269.00;;;2.44;100.00
59110;BME280;44895;47.438;18.978;2023-12-07T15:09:43;100268.66;;;2.52;100.00
59110;BME280;44895;47.438;18.978;2023-12-07T15:12:46;100271.44;;;2.57;100.00
59110;BME280;44895;47.438;18.978;2023-12-07T15:15:50;100276.56;;;2.59;100.00
59110;BME280;44895;47.438;18.978;2023-12-07T15:18:54;100259.22;;;2.38;100.00
59110;BME280;44895;47.438;18.978;2023-12-07T15:21:58;100285.31;;;2.54;100.00
59110;BME280;44895;47.438;18.978;2023-12-07T15:25:02;100266.53;;;2.54;100.00
59110;BME280;44895;47.438;18.978;2023-12-07T15:28:06;100280.78;;;2.55;100.00
59110;BME280;44895;47.438;18.978;2023-12-07T15:31:10;100291.47;;;2.67;100.00
59110;BME280;44895;47.438;18.978;2023-12-07T15:34:13;100296.25;;;2.65;100.00
59110;BME280;44895;47.438;18.978;2023-12-07T15:37:17;100293.56;;;2.65;100.00
59110;BME280;44895;47.438;18.978;2023-12-07T15:40:20;100302.69;;;2.64;100.00
59110;BME280;44895;47.438;18.978;2023-12-07T15:43:25;100291.25;;;2.80;100.00
59110;BME280;44895;47.438;18.978;2023-12-07T15:46:29;100292.97;;;2.74;100.00
59110;BME280;44895;47.438;18.978;2023-12-07T15:49:33;100294.09;;;2.50;100.00
59110;BME280;44895;47.438;18.978;2023-12-07T15:52:37;100304.31;;;2.53;100.00
59110;BME280;44895;47.438;18.978;2023-12-07T15:55:41;100307.13;;;2.58;100.00
59110;BME280;44895;47.438;18.978;2023-12-07T15:58:45;100312.50;;;2.22;100.00
59110;BME280;44895;47.438;18.978;2023-12-07T16:01:52;100319.16;;;2.43;100.00